createdAt,value
2023-01-29T00:01:17.792Z,11.03
2023-01-29T00:04:21.582Z,10.90
2023-01-29T00:07:25.205Z,11.10
2023-01-29T00:10:28.887Z,10.77
2023-01-29T00:13:34.551Z,10.07
2023-01-29T00:16:39.641Z,11.13
2023-01-29T00:19:43.410Z,11.30
2023-01-29T00:22:47.150Z,10.47
2023-01-29T00:25:50.904Z,11.03
2023-01-29T00:28:54.822Z,10.87
2023-01-29T00:31:59.939Z,11.37
2023-01-29T00:35:03.867Z,10.23
2023-01-29T00:38:07.515Z,10.47
2023-01-29T00:41:31.445Z,10.13
2023-01-29T00:44:52.591Z,9.70
2023-01-29T00:47:57.557Z,9.93
2023-01-29T00:51:01.432Z,9.80
2023-01-29T00:54:06.783Z,9.70
2023-01-29T00:57:10.439Z,9.60
2023-01-29T01:00:18.404Z,9.77
2023-01-29T01:03:23.600Z,11.67
2023-01-29T01:06:27.225Z,10.27
2023-01-29T01:09:48.137Z,10.60
2023-01-29T01:12:59.179Z,10.00
2023-01-29T01:16:02.899Z,9.60
2023-01-29T01:19:07.984Z,9.90
2023-01-29T01:22:12.139Z,10.83
2023-01-29T01:25:15.861Z,10.90
2023-01-29T01:28:19.428Z,10.13
2023-01-29T01:31:23.160Z,9.93
2023-01-29T01:34:28.596Z,11.10
2023-01-29T01:37:32.253Z,10.87
2023-01-29T01:40:35.983Z,11.17
2023-01-29T01:43:54.643Z,10.97
2023-01-29T01:46:58.371Z,10.97
2023-01-29T01:50:10.708Z,10.17
2023-01-29T01:53:19.930Z,10.87
2023-01-29T01:56:38.611Z,10.33
2023-01-29T01:59:44.337Z,11.20
2023-01-29T02:03:07.217Z,10.53
2023-01-29T02:06:30.364Z,10.37
2023-01-29T02:09:41.299Z,10.43
2023-01-29T02:12:46.862Z,10.43
2023-01-29T02:15:50.532Z,10.60
2023-01-29T02:18:55.204Z,10.80
2023-01-29T02:22:55.253Z,11.67
2023-01-29T02:26:41.912Z,11.03
2023-01-29T02:30:00.911Z,10.67
2023-01-29T02:33:22.557Z,10.90
2023-01-29T02:36:39.287Z,11.50
2023-01-29T02:39:58.658Z,10.73
2023-01-29T02:43:17.244Z,11.43
2023-01-29T02:46:32.042Z,10.37
2023-01-29T02:49:47.072Z,11.37
2023-01-29T02:53:03.384Z,11.27
2023-01-29T02:56:16.652Z,10.90
2023-01-29T02:59:26.721Z,11.73
2023-01-29T03:02:40.160Z,12.27
2023-01-29T03:05:58.826Z,10.70
2023-01-29T03:09:08.244Z,11.03
2023-01-29T03:12:29.287Z,11.30
2023-01-29T03:15:42.474Z,11.30
2023-01-29T03:18:56.247Z,12.70
2023-01-29T03:22:05.682Z,12.30
2023-01-29T03:25:29.604Z,11.70
2023-01-29T03:28:52.803Z,12.37
2023-01-29T03:32:05.595Z,12.60
2023-01-29T03:35:21.036Z,11.60
2023-01-29T03:38:29.736Z,11.77
2023-01-29T03:41:39.672Z,12.20
2023-01-29T03:44:58.627Z,13.47
2023-01-29T03:48:12.286Z,12.93
2023-01-29T03:51:29.667Z,13.33
2023-01-29T03:54:50.294Z,12.97
2023-01-29T03:58:02.129Z,14.07
2023-01-29T04:01:16.154Z,13.17
2023-01-29T04:04:27.837Z,14.20
2023-01-29T04:07:36.658Z,13.57
2023-01-29T04:10:44.402Z,14.07
2023-01-29T04:13:49.592Z,13.53
2023-01-29T04:16:59.052Z,14.73
2023-01-29T04:20:03.809Z,15.67
2023-01-29T04:23:21.910Z,14.03
2023-01-29T04:26:48.288Z,15.63
2023-01-29T04:30:15.173Z,15.70
2023-01-29T04:33:35.508Z,15.93
2023-01-29T04:36:55.700Z,14.80
2023-01-29T04:40:15.229Z,16.17
2023-01-29T04:43:29.739Z,16.07
2023-01-29T04:46:48.769Z,16.60
2023-01-29T04:50:05.465Z,16.70
2023-01-29T04:53:19.790Z,16.23
2023-01-29T04:56:35.110Z,14.87
2023-01-29T04:59:49.494Z,17.70
2023-01-29T05:02:54.562Z,16.77
2023-01-29T05:06:03.271Z,16.23
2023-01-29T05:09:07.687Z,15.93
2023-01-29T05:12:15.632Z,16.13
2023-01-29T05:15:25.836Z,16.63
2023-01-29T05:18:30.927Z,16.33
2023-01-29T05:21:34.500Z,15.97
2023-01-29T05:24:38.684Z,17.23
2023-01-29T05:28:01.418Z,16.47
2023-01-29T05:31:05.171Z,18.70
2023-01-29T05:34:08.982Z,17.87
2023-01-29T05:37:12.643Z,16.20
2023-01-29T05:40:16.962Z,16.70
2023-01-29T05:43:24.635Z,17.13
2023-01-29T05:46:28.256Z,16.53
2023-01-29T05:49:32.104Z,17.13
2023-01-29T05:52:35.843Z,17.83
2023-01-29T05:55:39.637Z,20.17
2023-01-29T05:58:44.794Z,17.93
2023-01-29T06:01:48.397Z,19.00
2023-01-29T06:04:53.121Z,19.37
2023-01-29T06:07:56.944Z,19.47
2023-01-29T06:11:00.696Z,20.43
2023-01-29T06:14:06.045Z,20.73
2023-01-29T06:17:09.778Z,21.27
2023-01-29T06:20:15.273Z,19.93
2023-01-29T06:23:19.115Z,20.90
2023-01-29T06:26:22.866Z,21.97
2023-01-29T06:29:27.972Z,23.20
2023-01-29T06:32:31.900Z,22.50
2023-01-29T06:35:35.645Z,22.80
2023-01-29T06:38:39.299Z,23.27
2023-01-29T06:41:43.065Z,22.93
2023-01-29T06:44:48.034Z,21.80
2023-01-29T06:47:51.635Z,23.23
2023-01-29T06:50:55.417Z,24.83
2023-01-29T06:53:59.100Z,23.43
2023-01-29T06:57:02.975Z,23.40
2023-01-29T07:00:11.262Z,23.43
2023-01-29T07:03:15.385Z,23.20
2023-01-29T07:06:19.333Z,23.87
2023-01-29T07:09:22.908Z,23.80
2023-01-29T07:12:26.552Z,24.70
2023-01-29T07:15:31.535Z,25.07
2023-01-29T07:18:35.248Z,24.70
2023-01-29T07:21:39.339Z,26.63
2023-01-29T07:24:44.692Z,25.80
2023-01-29T07:27:48.853Z,25.03
2023-01-29T07:30:58.408Z,26.03
2023-01-29T07:34:02.193Z,25.97
2023-01-29T07:37:06.355Z,28.00
2023-01-29T07:40:11.960Z,27.00
2023-01-29T07:43:17.205Z,26.50
2023-01-29T07:46:22.372Z,27.97
2023-01-29T07:49:26.208Z,29.20
2023-01-29T07:52:32.225Z,27.03
2023-01-29T07:55:45.425Z,27.23
2023-01-29T07:58:49.731Z,28.10
2023-01-29T08:01:54.856Z,27.70
2023-01-29T08:04:58.599Z,26.83
2023-01-29T08:08:06.942Z,27.77
2023-01-29T08:11:11.372Z,27.93
2023-01-29T08:14:15.028Z,27.97
2023-01-29T08:17:20.083Z,27.07
2023-01-29T08:20:24.576Z,28.23
2023-01-29T08:23:28.530Z,26.33
2023-01-29T08:26:32.140Z,28.67
2023-01-29T08:29:36.120Z,27.37
2023-01-29T08:32:41.431Z,26.43
2023-01-29T08:35:45.652Z,26.00
2023-01-29T08:38:49.231Z,25.53
2023-01-29T08:41:52.894Z,23.37
2023-01-29T08:44:56.530Z,23.83
2023-01-29T08:48:01.502Z,22.83
2023-01-29T08:51:05.757Z,21.03
2023-01-29T08:54:09.576Z,22.07
2023-01-29T08:57:13.140Z,21.83
2023-01-29T09:00:18.461Z,21.13
2023-01-29T09:03:23.663Z,21.00
2023-01-29T09:06:27.325Z,22.60
2023-01-29T09:09:30.965Z,22.17
2023-01-29T09:12:34.884Z,21.30
2023-01-29T09:15:38.580Z,19.73
2023-01-29T09:18:43.692Z,19.43
2023-01-29T09:21:47.497Z,18.83
2023-01-29T09:24:51.091Z,17.83
2023-01-29T09:27:55.994Z,18.23
2023-01-29T09:31:03.678Z,19.37
2023-01-29T09:34:08.932Z,18.43
2023-01-29T09:37:12.695Z,18.43
2023-01-29T09:40:27.153Z,17.60
2023-01-29T09:43:47.073Z,18.67
2023-01-29T09:46:56.195Z,16.07
2023-01-29T09:50:06.836Z,17.27
2023-01-29T09:53:21.303Z,17.47
2023-01-29T09:56:29.039Z,18.00
2023-01-29T09:59:33.901Z,17.87
2023-01-29T10:06:34.813Z,16.43
2023-01-29T10:10:09.577Z,16.83
2023-01-29T10:13:25.824Z,17.07
2023-01-29T10:16:47.300Z,16.63
2023-01-29T10:20:28.874Z,16.90
2023-01-29T10:23:38.620Z,16.37
2023-01-29T10:26:42.832Z,16.57
2023-01-29T10:29:52.180Z,17.17
2023-01-29T10:33:00.757Z,17.13
2023-01-29T10:36:12.549Z,15.73
2023-01-29T10:39:21.774Z,14.97
2023-01-29T10:42:35.833Z,16.10
2023-01-29T10:45:49.593Z,15.77
2023-01-29T10:49:06.534Z,16.27
2023-01-29T10:52:26.465Z,15.33
2023-01-29T10:55:53.416Z,16.10
2023-01-29T10:59:05.488Z,16.80
2023-01-29T11:02:19.871Z,15.37
2023-01-29T11:05:37.557Z,16.20
2023-01-29T11:08:50.523Z,16.70
2023-01-29T11:12:01.753Z,16.30
2023-01-29T11:15:17.359Z,15.10
2023-01-29T11:18:20.954Z,16.37
2023-01-29T11:21:27.100Z,15.27
2023-01-29T11:24:30.921Z,16.40
2023-01-29T11:27:45.814Z,14.93
2023-01-29T11:30:52.106Z,15.03
2023-01-29T11:34:06.611Z,15.93
2023-01-29T11:37:18.898Z,14.93
2023-01-29T11:40:40.738Z,17.13
2023-01-29T11:43:45.886Z,15.93
2023-01-29T11:46:51.424Z,17.00
2023-01-29T11:49:57.932Z,18.00
2023-01-29T11:53:03.102Z,17.17
2023-01-29T11:56:21.916Z,16.53
2023-01-29T11:59:44.338Z,16.67
2023-01-29T12:02:54.247Z,17.33
2023-01-29T12:06:02.317Z,16.57
2023-01-29T12:09:17.065Z,17.33
2023-01-29T12:12:37.104Z,16.30
2023-01-29T12:15:44.668Z,16.77
2023-01-29T12:18:56.638Z,16.93
2023-01-29T12:22:07.309Z,16.77
2023-01-29T12:25:27.596Z,17.60
2023-01-29T12:28:50.123Z,16.93
2023-01-29T12:32:08.734Z,16.67
2023-01-29T12:35:23.771Z,16.90
2023-01-29T12:38:27.588Z,17.57
2023-01-29T12:41:41.536Z,16.87
2023-01-29T12:44:50.050Z,17.00
2023-01-29T12:48:00.711Z,16.43
2023-01-29T12:51:12.923Z,17.13
2023-01-29T12:54:24.815Z,17.53
2023-01-29T12:57:44.017Z,16.87
2023-01-29T13:00:52.583Z,18.67
2023-01-29T13:04:06.426Z,18.17
2023-01-29T13:07:19.038Z,17.77
2023-01-29T13:10:29.925Z,19.83
2023-01-29T13:13:44.324Z,18.70
2023-01-29T13:16:54.601Z,20.27
2023-01-29T13:20:12.391Z,20.23
2023-01-29T13:23:23.423Z,19.93
2023-01-29T13:26:28.149Z,19.93
2023-01-29T13:29:34.035Z,21.40
2023-01-29T13:32:38.827Z,19.43
2023-01-29T13:35:47.815Z,20.37
2023-01-29T13:39:02.294Z,20.40
2023-01-29T13:42:20.441Z,21.20
2023-01-29T13:45:29.694Z,21.57
2023-01-29T13:48:39.909Z,21.93
2023-01-29T13:51:45.163Z,19.20
2023-01-29T13:54:58.536Z,22.27
2023-01-29T13:58:03.362Z,20.27
2023-01-29T14:01:07.098Z,20.20
2023-01-29T14:04:32.803Z,19.73
2023-01-29T14:07:53.198Z,20.07
2023-01-29T14:11:36.804Z,19.63
2023-01-29T14:15:05.411Z,19.93
2023-01-29T14:18:28.823Z,20.17
2023-01-29T14:21:36.190Z,21.50
2023-01-29T14:24:45.264Z,20.20
2023-01-29T14:27:50.307Z,19.33
2023-01-29T14:30:55.341Z,21.67
2023-01-29T14:34:04.576Z,19.97
2023-01-29T14:37:30.268Z,21.27
2023-01-29T14:40:37.351Z,20.90
2023-01-29T14:43:41.672Z,20.53
2023-01-29T14:46:46.780Z,21.93
2023-01-29T14:49:55.518Z,21.53
2023-01-29T14:53:08.854Z,21.57
2023-01-29T14:56:29.917Z,22.00
2023-01-29T14:59:40.166Z,21.67
2023-01-29T15:02:46.612Z,20.83
2023-01-29T15:05:54.736Z,22.03
2023-01-29T15:09:13.374Z,21.50
2023-01-29T15:12:29.297Z,22.87
2023-01-29T15:15:40.250Z,22.07
2023-01-29T15:18:45.411Z,22.33
2023-01-29T15:22:09.538Z,23.53
2023-01-29T15:25:19.545Z,24.07
2023-01-29T15:28:25.807Z,22.93
2023-01-29T15:31:30.518Z,24.60
2023-01-29T15:34:36.049Z,23.50
2023-01-29T15:37:41.801Z,25.70
2023-01-29T15:40:54.112Z,24.60
2023-01-29T15:44:02.154Z,24.23
2023-01-29T15:47:07.710Z,25.93
2023-01-29T15:50:15.366Z,25.13
2023-01-29T15:53:25.258Z,26.20
2023-01-29T15:56:35.346Z,26.67
2023-01-29T15:59:51.691Z,27.10
2023-01-29T16:02:55.989Z,27.47
2023-01-29T16:06:01.102Z,25.40
2023-01-29T16:09:08.653Z,25.87
2023-01-29T16:12:14.961Z,27.13
2023-01-29T16:15:36.847Z,26.87
2023-01-29T16:18:57.893Z,27.97
2023-01-29T16:22:06.928Z,30.07
2023-01-29T16:25:17.626Z,29.60
2023-01-29T16:28:21.760Z,27.37
2023-01-29T16:31:33.032Z,29.43
2023-01-29T16:34:39.776Z,27.57
2023-01-29T16:37:48.500Z,27.87
2023-01-29T16:41:14.842Z,30.20
2023-01-29T16:44:37.539Z,31.37
2023-01-29T16:47:42.856Z,29.73
2023-01-29T16:50:55.086Z,30.17
2023-01-29T16:54:02.717Z,31.83
2023-01-29T16:57:06.352Z,33.03
2023-01-29T17:00:22.157Z,31.83
2023-01-29T17:03:29.539Z,30.37
2023-01-29T17:06:34.642Z,30.10
2023-01-29T17:09:40.194Z,32.83
2023-01-29T17:12:54.220Z,32.63
2023-01-29T17:16:04.181Z,32.73
2023-01-29T17:19:21.689Z,31.93
2023-01-29T17:22:25.953Z,32.20
2023-01-29T17:25:31.158Z,31.97
2023-01-29T17:28:35.725Z,33.47
2023-01-29T17:31:39.591Z,33.23
2023-01-29T17:34:45.197Z,33.27
2023-01-29T17:37:49.197Z,34.27
2023-01-29T17:40:58.793Z,34.33
2023-01-29T17:44:02.556Z,35.27
2023-01-29T17:47:08.027Z,35.97
2023-01-29T17:50:23.484Z,35.50
2023-01-29T17:53:39.800Z,32.20
2023-01-29T17:56:48.666Z,35.27
2023-01-29T17:59:53.303Z,35.83
2023-01-29T18:03:01.012Z,35.07
2023-01-29T18:06:10.167Z,36.70
2023-01-29T18:09:15.900Z,34.90
2023-01-29T18:12:19.709Z,36.53
2023-01-29T18:15:23.849Z,36.27
2023-01-29T18:18:29.417Z,32.93
2023-01-29T18:21:34.610Z,34.40
2023-01-29T18:24:38.356Z,36.03
2023-01-29T18:27:42.110Z,35.83
2023-01-29T18:30:47.839Z,34.53
2023-01-29T18:33:51.672Z,33.83
2023-01-29T18:36:57.303Z,35.57
2023-01-29T18:40:01.842Z,35.43
2023-01-29T18:43:06.023Z,36.00
2023-01-29T18:46:11.067Z,33.70
2023-01-29T18:49:15.410Z,35.07
2023-01-29T18:52:20.702Z,34.83
2023-01-29T18:55:26.636Z,33.90
2023-01-29T18:58:36.804Z,35.73
2023-01-29T19:01:40.710Z,32.33
2023-01-29T19:04:44.902Z,34.57
2023-01-29T19:07:50.054Z,34.17
2023-01-29T19:10:53.980Z,33.50
2023-01-29T19:13:58.436Z,34.47
2023-01-29T19:17:03.090Z,33.57
2023-01-29T19:20:09.649Z,34.10
2023-01-29T19:23:14.938Z,33.23
2023-01-29T19:26:19.260Z,33.63
2023-01-29T19:29:23.444Z,33.67
2023-01-29T19:32:28.872Z,34.83
2023-01-29T19:35:33.510Z,33.67
2023-01-29T19:38:39.883Z,32.50
2023-01-29T19:41:44.006Z,33.70
2023-01-29T19:44:47.838Z,31.90
2023-01-29T19:47:51.481Z,31.83
2023-01-29T19:50:57.316Z,33.80
2023-01-29T19:54:02.544Z,33.63
2023-01-29T19:57:07.538Z,31.80
2023-01-29T20:00:14.743Z,30.77
2023-01-29T20:03:18.302Z,31.00
2023-01-29T20:06:26.832Z,32.30
2023-01-29T20:09:31.957Z,30.90
2023-01-29T20:12:35.633Z,31.33
2023-01-29T20:15:46.908Z,31.13
2023-01-29T20:18:50.826Z,30.20
2023-01-29T20:21:54.654Z,30.90
2023-01-29T20:24:59.781Z,28.47
2023-01-29T20:28:03.489Z,28.53
2023-01-29T20:31:09.329Z,27.23
2023-01-29T20:34:12.975Z,29.27
2023-01-29T20:37:16.673Z,29.87
2023-01-29T20:40:22.106Z,27.67
2023-01-29T20:43:26.039Z,28.23
2023-01-29T20:46:30.048Z,28.23
2023-01-29T20:49:33.733Z,29.67
2023-01-29T20:52:38.067Z,28.30
2023-01-29T20:55:43.516Z,25.93
2023-01-29T20:58:47.724Z,27.70
2023-01-29T21:01:51.434Z,26.60
2023-01-29T21:04:55.090Z,28.17
2023-01-29T21:07:58.761Z,27.17
2023-01-29T21:11:04.175Z,26.27
2023-01-29T21:14:08.012Z,27.27
2023-01-29T21:17:11.678Z,28.17
2023-01-29T21:20:16.062Z,27.87
2023-01-29T21:23:20.368Z,27.83
2023-01-29T21:26:26.041Z,26.47
2023-01-29T21:29:29.686Z,27.20
2023-01-29T21:32:33.817Z,26.53
2023-01-29T21:35:38.480Z,26.43
2023-01-29T21:38:42.394Z,29.17
2023-01-29T21:42:06.833Z,27.63
2023-01-29T21:45:12.055Z,28.87
2023-01-29T21:48:20.011Z,29.37
2023-01-29T21:51:23.895Z,27.47
2023-01-29T21:54:31.129Z,29.53
2023-01-29T21:57:36.334Z,29.57
2023-01-29T22:00:43.239Z,28.33
2023-01-29T22:03:47.620Z,29.33
2023-01-29T22:06:51.389Z,30.93
2023-01-29T22:09:55.089Z,30.13
2023-01-29T22:13:02.050Z,29.77
2023-01-29T22:16:07.042Z,29.43
2023-01-29T22:19:10.704Z,29.43
2023-01-29T22:22:15.717Z,31.17
2023-01-29T22:25:20.166Z,30.33
2023-01-29T22:28:25.189Z,30.33
2023-01-29T22:31:28.794Z,30.70
2023-01-29T22:34:32.632Z,32.40
2023-01-29T22:37:36.238Z,30.63
2023-01-29T22:40:40.103Z,32.23
2023-01-29T22:43:45.119Z,32.57
2023-01-29T22:46:49.010Z,30.93
2023-01-29T22:49:52.637Z,31.73
2023-01-29T22:52:56.440Z,30.10
2023-01-29T22:56:00.429Z,32.60
2023-01-29T22:59:05.529Z,31.90
2023-01-29T23:02:10.545Z,31.17
2023-01-29T23:05:14.218Z,31.87
2023-01-29T23:08:17.852Z,30.17
2023-01-29T23:11:23.845Z,29.67
2023-01-29T23:14:28.935Z,29.50
2023-01-29T23:17:32.572Z,30.07
2023-01-29T23:20:36.361Z,29.67
2023-01-29T23:23:43.113Z,30.10
2023-01-29T23:27:05.636Z,29.10
2023-01-29T23:30:12.514Z,27.37
2023-01-29T23:33:16.233Z,28.50
2023-01-29T23:36:19.989Z,29.17
2023-01-29T23:39:23.838Z,28.50
2023-01-29T23:42:27.479Z,30.23
2023-01-29T23:45:36.047Z,27.80
2023-01-29T23:48:39.690Z,28.83
2023-01-29T23:51:43.404Z,27.63
2023-01-29T23:54:47.030Z,29.10
2023-01-29T23:57:50.629Z,29.00
